Главная страница
METAR-TAF:

METAR-TAF

Аэропорты :

Уотсон-Лейк, Юкон, Канада

широта: 60-07N, долгота: 128-49W, высота над уровнем моря: 690 м

Текущие метеонаблюдения

Эта сводка был подготовлена 1 час и 8 минут назад, в 18:00 UTC
Ветер 3 Узел от юго-восточный, изменяющийся между восточно-северо-восточный и южный-юго-западный
Температура 2°C
Влажность 44%
Давление 1024 hPa
Видимость: 64.4 км
небольшая облачность на высоте 10000 фута
небольшая облачность на высоте 14000 фута
Рассеянная облачность на высоте 19000 фута

METAR: CYQH 201800Z 13003KT 070V200 40SM FEW100 FEW140 BKN190 02/M09 A3025 RMK AC1AC1CI4 CLIMAT 1.9/-2.0/0.0 SLP280

Время: 12:08 (19:08 UTC)

Прогноз

Эта сводка был подготовлена 1 час и 30 минут назад, в 17:38 UTC
Прогноз действительный с 20-го 18 UTC до 21-го 06 UTC
Ветер 5 Узел от северо-восточный
Видимость: 10 км
небольшая облачность на высоте 14000 фута
Отдельные облака на высоте 22000 фута

TAF: CYQH 201738Z 2018/2106 05005KT P6SM FEW140 SCT220 RMK NXT FCST BY 210000Z

Метеонаблюдения и прогнозы для более 4000 аэропортов (сводки METAR и TAF).

Имеющиеся станции представлены на карте желтыми и красными точками.

Чтобы увидеть название станции, наведите на нее мышь.

Затем щелкните, чтобы увидеть метеонаблюдения и метеопрогнозы.

Управление картой: чтобы увеличить масштаб, щелкните зеленые кнопки с черным крестиком; чтобы уменьшить масштаб, щелкните зеленую кнопку с тире; для просмотра соседних карт щелкайте зеленые стрелки.


METAR-TAF: